Ise Maru — JG5743 — position and weather

sailwx.info

Track history (hours):
 
Tides and Currents Weather Stations Pressure Air Temp Water Temp Dewpoint Dewpoint Depression Visibility Wind Speed Wind Dir Waves Ship Positions

Ise Maru

Last reported at 2018-Feb-19 05:15 UTC. Time now 2018-Feb-19 08:09 UTC.
Position N 35°28' E 140°01'.

Length 34 m; draft 3.5 m.

Type: Tug. MMSI: 431101046.

Date/timePositionNaut miles runAvg speedWind from/ knotsBaromVisibWave heightAir tempDewpointWater temp
2018-Feb-19 05:15N 35°28' E 140°01'3 9.9
2018-Feb-19 04:58N 35°31' E 140°01'4 4.5
2018-Feb-19 04:08N 35°33' E 140°05'0 3.5
2018-Feb-19 04:00N 35°33' E 140°05'4 7.4
2018-Feb-19 03:30N 35°34' E 140°00'4 8.1
2018-Feb-19 03:00N 35°33' E 140°05'1 1.0
2018-Feb-19 02:28N 35°33' E 140°05'511.2
2018-Feb-19 02:00N 35°29' E 140°01'1 0.0
2018-Feb-17 15:55N 35°28' E 140°01'510.9
2018-Feb-17 15:30N 35°28' E 139°56'713.2
2018-Feb-17 15:01N 35°25' E 139°49'612.6
2018-Feb-17 14:31N 35°23' E 139°42'2 4.0
2018-Feb-17 14:01N 35°24' E 139°39'0 0.1
2018-Feb-17 13:30N 35°24' E 139°39'0 0.5
2018-Feb-17 13:00N 35°24' E 139°39'4 8.5
2018-Feb-17 12:31N 35°28' E 139°42'0 0.9
2018-Feb-17 12:01N 35°28' E 139°42'1 2.6
2018-Feb-17 11:31N 35°27' E 139°44'612.8
2018-Feb-17 11:00N 35°30' E 139°51'612.9
2018-Feb-17 10:31N 35°29' E 139°59'2 0.3
2018-Feb-17 03:03N 35°28' E 140°01'0 0.0
2018-Feb-17 03:00N 35°28' E 140°01'3 6.1
2018-Feb-17 02:30N 35°28' E 139°58'0 0.1
2018-Feb-17 02:01N 35°29' E 139°58'0 0.2
2018-Feb-17 01:30N 35°28' E 139°58'0 0.2
2018-Feb-17 00:59N 35°29' E 139°58'0 0.1
2018-Feb-17 00:29N 35°28' E 139°58'0 0.3
2018-Feb-17 00:00N 35°29' E 139°58'0 0.3
2018-Feb-16 23:30N 35°29' E 139°58'0 0.2
2018-Feb-16 23:00N 35°28' E 139°58'0 0.2
2018-Feb-16 22:30N 35°29' E 139°58'0 0.1
2018-Feb-16 21:57N 35°29' E 139°58'0 0.4
2018-Feb-16 21:30N 35°29' E 139°58'0 0.3
2018-Feb-16 20:59N 35°29' E 139°58'0 0.1
2018-Feb-16 20:30N 35°29' E 139°58'0 0.1
2018-Feb-16 20:00N 35°29' E 139°58'0 0.1
2018-Feb-16 19:30N 35°29' E 139°58'0 0.1
2018-Feb-16 18:55N 35°29' E 139°58'0 0.2
2018-Feb-16 18:30N 35°29' E 139°58'0 0.1
2018-Feb-16 18:01N 35°29' E 139°58'0 0.1
2018-Feb-16 17:30N 35°29' E 139°58'0 0.1
2018-Feb-16 17:00N 35°29' E 139°58'0 0.0
2018-Feb-16 16:30N 35°29' E 139°58'0 0.1
2018-Feb-16 16:00N 35°29' E 139°58'0 0.2
2018-Feb-16 15:30N 35°29' E 139°58'0 0.3
2018-Feb-16 15:00N 35°29' E 139°58'0 0.1
2018-Feb-16 14:30N 35°29' E 139°58'0 0.1
2018-Feb-16 14:01N 35°29' E 139°58'0 0.1
2018-Feb-16 13:30N 35°29' E 139°58'0 0.2
2018-Feb-16 13:01N 35°29' E 139°58'0 0.2
2018-Feb-16 12:30N 35°29' E 139°58'0 0.2
2018-Feb-16 12:00N 35°29' E 139°58'0 0.0
2018-Feb-16 11:30N 35°29' E 139°58'0 0.1
2018-Feb-16 11:00N 35°29' E 139°58'0 0.0
2018-Feb-16 10:28N 35°29' E 139°58'0 0.2
2018-Feb-16 10:00N 35°29' E 139°58'0 0.1
2018-Feb-16 09:30N 35°29' E 139°58'0 0.2
2018-Feb-16 09:00N 35°29' E 139°58'0 0.1
2018-Feb-16 08:30N 35°29' E 139°58'0 0.0
2018-Feb-16 08:00N 35°29' E 139°58'0 0.1
2018-Feb-16 07:30N 35°29' E 139°58'0 0.0
2018-Feb-16 07:00N 35°29' E 139°58'0 0.1
2018-Feb-16 06:30N 35°29' E 139°58'0 0.2
2018-Feb-16 06:00N 35°29' E 139°58'0 0.1
2018-Feb-16 05:30N 35°29' E 139°58'0 0.0
2018-Feb-16 05:00N 35°29' E 139°58'0 0.3
2018-Feb-16 04:30N 35°28' E 139°58'0 0.1
2018-Feb-16 04:00N 35°28' E 139°58'0 0.2
2018-Feb-16 03:30N 35°29' E 139°58'0 0.1
2018-Feb-16 03:00N 35°28' E 139°58'0 0.3
2018-Feb-16 02:30N 35°28' E 139°58'0 0.2
2018-Feb-16 02:00N 35°28' E 139°58'2 4.4
2018-Feb-16 01:29N 35°29' E 140°01'1 0.1
2018-Feb-15 10:27N 35°28' E 140°01'511.0
2018-Feb-15 09:59N 35°28' E 139°55'612.8
2018-Feb-15 09:31N 35°27' E 139°48'612.6
2018-Feb-15 09:00N 35°27' E 139°40'1 3.0
2018-Feb-15 08:30N 35°29' E 139°40'2 4.4
2018-Feb-15 08:01N 35°27' E 139°42'0 0.0
2018-Feb-15 07:30N 35°27' E 139°42'0 0.0
2018-Feb-15 07:00N 35°27' E 139°42'0 0.0
2018-Feb-15 06:31N 35°27' E 139°42'4 8.5
2018-Feb-15 06:00N 35°23' E 139°40'2 3.6
2018-Feb-15 05:30N 35°24' E 139°38'0 0.4
2018-Feb-15 05:01N 35°24' E 139°38'1 2.3
2018-Feb-15 04:31N 35°23' E 139°40'0 0.4
2018-Feb-15 04:00N 35°23' E 139°40'0 0.1
2018-Feb-15 03:30N 35°23' E 139°40'0 0.0
2018-Feb-15 03:00N 35°23' E 139°40'0 0.0
2018-Feb-15 02:30N 35°23' E 139°40'0 0.0
2018-Feb-15 02:00N 35°23' E 139°40'1 1.7
2018-Feb-15 01:30N 35°23' E 139°41'1 2.6
2018-Feb-15 01:01N 35°24' E 139°39'1 1.7
2018-Feb-15 00:31N 35°24' E 139°38'0 0.8
2018-Feb-15 00:00N 35°24' E 139°38'0 0.1
2018-Feb-14 23:30N 35°24' E 139°38'0 0.1
2018-Feb-14 23:00N 35°24' E 139°38'0 0.1
2018-Feb-14 22:30N 35°24' E 139°38'0 0.1
2018-Feb-14 22:00N 35°24' E 139°38'0 0.1
2018-Feb-14 21:30N 35°24' E 139°38'0 0.2
2018-Feb-14 21:00N 35°24' E 139°38'0 0.1
2018-Feb-14 20:31N 35°24' E 139°38'0 0.1
2018-Feb-14 20:01N 35°24' E 139°38'0 0.1
2018-Feb-14 19:30N 35°24' E 139°38'0 0.0
2018-Feb-14 19:01N 35°24' E 139°38'0 0.2
2018-Feb-14 18:30N 35°24' E 139°38'0 0.1
2018-Feb-14 18:00N 35°24' E 139°38'0 0.1
2018-Feb-14 17:30N 35°24' E 139°38'0 0.0
2018-Feb-14 17:00N 35°24' E 139°38'0 0.2
2018-Feb-14 16:30N 35°24' E 139°38'0 0.1
2018-Feb-14 16:00N 35°24' E 139°38'0 0.0
2018-Feb-14 15:30N 35°24' E 139°38'0 0.1
2018-Feb-14 15:00N 35°24' E 139°38'0 0.1
2018-Feb-14 14:31N 35°24' E 139°38'0 0.1
2018-Feb-14 14:00N 35°24' E 139°38'0 0.1
2018-Feb-14 13:30N 35°24' E 139°38'0 0.1
2018-Feb-14 13:01N 35°24' E 139°38'0 0.3
2018-Feb-14 12:30N 35°24' E 139°38'0 0.1
2018-Feb-14 12:00N 35°24' E 139°38'0 0.1
2018-Feb-14 11:31N 35°24' E 139°38'0 0.2
2018-Feb-14 11:01N 35°24' E 139°38'0 0.1
2018-Feb-14 10:31N 35°24' E 139°38'0 0.2
2018-Feb-14 10:00N 35°24' E 139°38'0 0.5
2018-Feb-14 09:30N 35°24' E 139°38'0 0.5
2018-Feb-14 09:00N 35°24' E 139°38'0 0.0
2018-Feb-14 08:30N 35°24' E 139°38'0 0.0
2018-Feb-14 08:00N 35°24' E 139°38'0 0.4
2018-Feb-14 07:30N 35°24' E 139°38'0 0.3
2018-Feb-14 07:01N 35°24' E 139°38'0 0.4
2018-Feb-14 06:30N 35°24' E 139°38'3 6.3
2018-Feb-14 06:01N 35°25' E 139°42'3 7.0
2018-Feb-14 05:30N 35°27' E 139°39'4 8.0
2018-Feb-14 05:01N 35°28' E 139°44'0 0.0
2018-Feb-14 04:30N 35°28' E 139°44'0 0.2
2018-Feb-14 04:00N 35°28' E 139°44'0 0.0
2018-Feb-14 03:31N 35°28' E 139°44'0 0.3
2018-Feb-14 03:00N 35°28' E 139°45'0 0.4
2018-Feb-14 02:31N 35°28' E 139°45'0 0.5
2018-Feb-14 02:00N 35°28' E 139°44'0 0.0
2018-Feb-14 01:30N 35°28' E 139°44'0 0.4
2018-Feb-14 01:01N 35°28' E 139°44'0 0.2
2018-Feb-14 00:31N 35°28' E 139°44'0 0.4
2018-Feb-14 00:01N 35°28' E 139°44'0 0.1
2018-Feb-13 23:30N 35°28' E 139°44'0 0.2
2018-Feb-13 23:00N 35°28' E 139°44'0 0.3
2018-Feb-13 22:30N 35°28' E 139°44'0 0.3
2018-Feb-13 22:00N 35°28' E 139°44'0 0.1
2018-Feb-13 21:30N 35°28' E 139°44'0 0.1
2018-Feb-13 21:01N 35°28' E 139°44'0 0.6
2018-Feb-13 20:30N 35°28' E 139°44'0 0.3
2018-Feb-13 20:00N 35°28' E 139°44'0 0.5
2018-Feb-13 19:30N 35°28' E 139°44'0 0.0
2018-Feb-13 19:00N 35°28' E 139°44'0 0.0
2018-Feb-13 18:30N 35°28' E 139°44'0 0.0
2018-Feb-13 18:00N 35°28' E 139°44'0 0.0
2018-Feb-13 17:30N 35°28' E 139°44'0 0.0
2018-Feb-13 17:00N 35°28' E 139°44'0 0.0
2018-Feb-13 16:30N 35°28' E 139°44'0 0.0
2018-Feb-13 16:00N 35°28' E 139°44'0 0.0
2018-Feb-13 15:30N 35°28' E 139°44'0 0.0
2018-Feb-13 15:00N 35°28' E 139°44'0 0.0
2018-Feb-13 14:30N 35°28' E 139°44'0 0.0
2018-Feb-13 14:01N 35°28' E 139°44'0 0.0
2018-Feb-13 13:30N 35°28' E 139°44'0 0.0
2018-Feb-13 13:00N 35°28' E 139°44'0 0.6
2018-Feb-13 12:30N 35°28' E 139°45'0 0.5
2018-Feb-13 12:00N 35°28' E 139°44'0 0.0
2018-Feb-13 11:30N 35°28' E 139°44'0 0.1
2018-Feb-13 11:00N 35°28' E 139°45'0 0.3
2018-Feb-13 10:30N 35°28' E 139°45'0 0.5
2018-Feb-13 10:00N 35°28' E 139°44'0 0.1
2018-Feb-13 09:30N 35°28' E 139°44'0 0.3
2018-Feb-13 09:00N 35°28' E 139°45'0 0.1
2018-Feb-13 08:31N 35°28' E 139°44'0 0.2
2018-Feb-13 08:00N 35°28' E 139°44'0 0.1
2018-Feb-13 07:30N 35°28' E 139°45'0 0.0
2018-Feb-13 07:01N 35°28' E 139°45'0 0.4
2018-Feb-13 06:30N 35°28' E 139°45'0 0.2
2018-Feb-13 06:00N 35°28' E 139°44'0 0.5
2018-Feb-13 05:30N 35°28' E 139°44'0 0.1
2018-Feb-13 05:00N 35°28' E 139°44'0 0.9
2018-Feb-13 04:30N 35°28' E 139°45'0 0.4
2018-Feb-13 04:01N 35°28' E 139°45'0 0.4
2018-Feb-13 03:30N 35°28' E 139°44'0 0.5
2018-Feb-13 03:00N 35°28' E 139°45'0 0.6
2018-Feb-13 02:30N 35°28' E 139°44'0 0.0
2018-Feb-13 02:00N 35°28' E 139°44'0 0.0
2018-Feb-13 01:30N 35°28' E 139°44'0 0.1
2018-Feb-13 01:00N 35°28' E 139°44'0 0.2
2018-Feb-13 00:30N 35°28' E 139°44'0 0.5
2018-Feb-13 00:00N 35°28' E 139°44'0 0.1
2018-Feb-12 23:30N 35°28' E 139°44'611.1
2018-Feb-12 22:59N 35°30' E 139°51'613.1
2018-Feb-12 22:29N 35°29' E 139°59'2 0.1
2018-Feb-12 05:06N 35°28' E 140°01'110.4
2018-Feb-12 05:00N 35°29' E 140°01'2 4.0
2018-Feb-12 04:31N 35°29' E 139°58'0 0.0
2018-Feb-12 04:00N 35°29' E 139°58'0 0.1
2018-Feb-12 03:30N 35°29' E 139°58'0 0.1
2018-Feb-12 03:00N 35°29' E 139°58'0 0.1
2018-Feb-12 02:30N 35°29' E 139°58'0 0.0
2018-Feb-12 02:01N 35°29' E 139°58'0 0.1
2018-Feb-12 01:30N 35°29' E 139°58'0 0.0
2018-Feb-12 01:00N 35°29' E 139°58'0 0.1
2018-Feb-12 00:30N 35°29' E 139°58'0 0.1
2018-Feb-12 00:01N 35°29' E 139°58'0 0.4
2018-Feb-11 23:30N 35°29' E 139°58'0 0.2
2018-Feb-11 23:00N 35°29' E 139°58'0 0.3
2018-Feb-11 22:30N 35°29' E 139°58'0 0.5
2018-Feb-11 22:00N 35°29' E 139°58'0 0.6
2018-Feb-11 21:30N 35°29' E 139°58'0 0.2
2018-Feb-11 21:01N 35°29' E 139°58'0 0.4
2018-Feb-11 20:30N 35°29' E 139°58'0 0.2
2018-Feb-11 20:01N 35°29' E 139°58'0 0.2
2018-Feb-11 19:30N 35°29' E 139°58'0 0.1
2018-Feb-11 19:00N 35°29' E 139°58'0 0.1
2018-Feb-11 18:30N 35°29' E 139°58'0 0.2
2018-Feb-11 17:59N 35°29' E 139°58'0 0.4
2018-Feb-11 17:30N 35°29' E 139°58'0 0.1
2018-Feb-11 16:59N 35°29' E 139°58'0 0.3
2018-Feb-11 16:30N 35°29' E 139°58'0 0.1
2018-Feb-11 16:01N 35°29' E 139°58'0 0.3
2018-Feb-11 15:30N 35°29' E 139°58'0 0.3
2018-Feb-11 14:59N 35°29' E 139°58'0 0.5
2018-Feb-11 14:30N 35°29' E 139°58'0 0.2
2018-Feb-11 14:00N 35°29' E 139°58'0 0.2
2018-Feb-11 13:30N 35°29' E 139°58'0 0.0
2018-Feb-11 13:00N 35°29' E 139°58'0 0.1
2018-Feb-11 12:30N 35°29' E 139°58'0 0.1
2018-Feb-11 12:00N 35°29' E 139°58'0 0.1
2018-Feb-11 11:31N 35°29' E 139°58'0 0.0
2018-Feb-11 11:00N 35°29' E 139°58'0 0.5
2018-Feb-11 10:30N 35°29' E 139°58'0 0.1
2018-Feb-11 10:00N 35°29' E 139°58'0 0.4
2018-Feb-11 09:30N 35°29' E 139°58'0 0.3
2018-Feb-11 09:00N 35°29' E 139°58'0 0.2
2018-Feb-11 08:30N 35°29' E 139°58'0 0.3
2018-Feb-11 08:01N 35°29' E 139°58'0 0.1
2018-Feb-11 07:30N 35°29' E 139°58'0 0.2
2018-Feb-11 07:00N 35°29' E 139°58'0 0.0
2018-Feb-11 06:30N 35°29' E 139°58'0 0.0
2018-Feb-11 06:00N 35°29' E 139°58'0 0.2
2018-Feb-11 05:29N 35°29' E 139°58'0 0.2
2018-Feb-11 05:00N 35°29' E 139°58'0 0.1
2018-Feb-11 04:31N 35°29' E 139°58'0 0.1
2018-Feb-11 04:00N 35°29' E 139°58'0 0.1
2018-Feb-11 03:31N 35°29' E 139°58'0 0.3
2018-Feb-11 03:00N 35°29' E 139°58'0 0.6
2018-Feb-11 02:30N 35°28' E 139°58'0 0.6
2018-Feb-11 02:00N 35°29' E 139°58'0 0.1
2018-Feb-11 01:30N 35°29' E 139°58'0 0.1
2018-Feb-11 01:00N 35°29' E 139°58'0 0.2
2018-Feb-11 00:31N 35°29' E 139°58'0 0.1
2018-Feb-11 00:00N 35°29' E 139°58'0 0.4
2018-Feb-10 23:30N 35°29' E 139°58'0 0.1
2018-Feb-10 23:00N 35°29' E 139°58'0 0.2
2018-Feb-10 22:30N 35°29' E 139°58'0 0.2
2018-Feb-10 22:00N 35°29' E 139°58'0 0.1
2018-Feb-10 21:30N 35°29' E 139°58'0 0.0
2018-Feb-10 21:00N 35°29' E 139°58'0 0.1
2018-Feb-10 20:30N 35°29' E 139°58'0 0.1
2018-Feb-10 20:00N 35°29' E 139°58'0 0.2
2018-Feb-10 19:30N 35°29' E 139°58'0 0.1
2018-Feb-10 19:00N 35°29' E 139°58'0 0.1
2018-Feb-10 18:31N 35°29' E 139°58'0 0.0
2018-Feb-10 18:01N 35°29' E 139°58'0 0.0
2018-Feb-10 17:30N 35°29' E 139°58'0 0.2
2018-Feb-10 17:01N 35°29' E 139°58'0 0.1
2018-Feb-10 16:30N 35°29' E 139°58'0 0.2
2018-Feb-10 16:00N 35°29' E 139°58'0 0.2
2018-Feb-10 15:29N 35°29' E 139°58'0 0.1
2018-Feb-10 15:00N 35°29' E 139°58'0 0.2
2018-Feb-10 14:30N 35°29' E 139°58'0 0.0
2018-Feb-10 14:00N 35°29' E 139°58'0 0.1
2018-Feb-10 13:30N 35°29' E 139°58'0 0.1
2018-Feb-10 13:01N 35°29' E 139°58'0 0.1
2018-Feb-10 12:30N 35°29' E 139°58'0 0.0
2018-Feb-10 12:00N 35°29' E 139°58'0 0.1
2018-Feb-10 11:30N 35°29' E 139°58'0 0.1
2018-Feb-10 11:01N 35°29' E 139°58'0 0.0
2018-Feb-10 10:30N 35°29' E 139°58'0 0.1
2018-Feb-10 10:00N 35°29' E 139°58'0 0.0
2018-Feb-10 09:31N 35°29' E 139°58'0 0.1
2018-Feb-10 09:00N 35°29' E 139°58'0 0.1
2018-Feb-10 08:30N 35°29' E 139°58'0 0.0
2018-Feb-10 08:00N 35°29' E 139°58'0 0.3
2018-Feb-10 07:31N 35°29' E 139°58'0 0.2
2018-Feb-10 07:00N 35°29' E 139°58'0 0.0
2018-Feb-10 06:31N 35°29' E 139°58'0 0.3
2018-Feb-10 06:00N 35°29' E 139°58'0 0.0
2018-Feb-10 05:30N 35°29' E 139°58'0 0.5
2018-Feb-10 04:59N 35°28' E 139°58'2 4.4
2018-Feb-10 04:29N 35°28' E 140°01'10 0.8
2018-Feb-09 15:30N 35°27' E 139°48'5 9.8
2018-Feb-09 15:00N 35°28' E 139°42'0 0.1
2018-Feb-09 14:31N 35°28' E 139°42'1 1.6
2018-Feb-09 14:01N 35°27' E 139°42'1 0.4
2018-Feb-09 12:30N 35°28' E 139°42'1 1.5
2018-Feb-09 11:30N 35°27' E 139°43'3 0.7
2018-Feb-09 07:00N 35°29' E 139°40'0 0.9
2018-Feb-09 06:30N 35°29' E 139°40'  
Track history (hours):
 
Tides and Currents Weather Stations Pressure Air Temp Water Temp Dewpoint Dewpoint Depression Visibility Wind Speed Wind Dir Waves Ship Positions

Ise Maru

Last reported at 2018-Feb-19 05:15 UTC. Time now 2018-Feb-19 08:09 UTC.
Position N 35°28' E 140°01'.

Length 34 m; draft 3.5 m.

Type: Tug. MMSI: 431101046.

Date/timePositionNaut miles runAvg speedWind from/ knotsBaromVisibWave heightAir tempDewpointWater temp
2018-Feb-19 05:15N 35°28' E 140°01'3 9.9
2018-Feb-19 04:58N 35°31' E 140°01'4 4.5
2018-Feb-19 04:08N 35°33' E 140°05'0 3.5
2018-Feb-19 04:00N 35°33' E 140°05'4 7.4
2018-Feb-19 03:30N 35°34' E 140°00'4 8.1
2018-Feb-19 03:00N 35°33' E 140°05'1 1.0
2018-Feb-19 02:28N 35°33' E 140°05'511.2
2018-Feb-19 02:00N 35°29' E 140°01'1 0.0
2018-Feb-17 15:55N 35°28' E 140°01'510.9
2018-Feb-17 15:30N 35°28' E 139°56'713.2
2018-Feb-17 15:01N 35°25' E 139°49'612.6
2018-Feb-17 14:31N 35°23' E 139°42'2 4.0
2018-Feb-17 14:01N 35°24' E 139°39'0 0.1
2018-Feb-17 13:30N 35°24' E 139°39'0 0.5
2018-Feb-17 13:00N 35°24' E 139°39'4 8.5
2018-Feb-17 12:31N 35°28' E 139°42'0 0.9
2018-Feb-17 12:01N 35°28' E 139°42'1 2.6
2018-Feb-17 11:31N 35°27' E 139°44'612.8
2018-Feb-17 11:00N 35°30' E 139°51'612.9
2018-Feb-17 10:31N 35°29' E 139°59'2 0.3
2018-Feb-17 03:03N 35°28' E 140°01'0 0.0
2018-Feb-17 03:00N 35°28' E 140°01'3 6.1
2018-Feb-17 02:30N 35°28' E 139°58'0 0.1
2018-Feb-17 02:01N 35°29' E 139°58'0 0.2
2018-Feb-17 01:30N 35°28' E 139°58'0 0.2
2018-Feb-17 00:59N 35°29' E 139°58'0 0.1
2018-Feb-17 00:29N 35°28' E 139°58'0 0.3
2018-Feb-17 00:00N 35°29' E 139°58'0 0.3
2018-Feb-16 23:30N 35°29' E 139°58'0 0.2
2018-Feb-16 23:00N 35°28' E 139°58'0 0.2
2018-Feb-16 22:30N 35°29' E 139°58'0 0.1
2018-Feb-16 21:57N 35°29' E 139°58'0 0.4
2018-Feb-16 21:30N 35°29' E 139°58'0 0.3
2018-Feb-16 20:59N 35°29' E 139°58'0 0.1
2018-Feb-16 20:30N 35°29' E 139°58'0 0.1
2018-Feb-16 20:00N 35°29' E 139°58'0 0.1
2018-Feb-16 19:30N 35°29' E 139°58'0 0.1
2018-Feb-16 18:55N 35°29' E 139°58'0 0.2
2018-Feb-16 18:30N 35°29' E 139°58'0 0.1
2018-Feb-16 18:01N 35°29' E 139°58'0 0.1
2018-Feb-16 17:30N 35°29' E 139°58'0 0.1
2018-Feb-16 17:00N 35°29' E 139°58'0 0.0
2018-Feb-16 16:30N 35°29' E 139°58'0 0.1
2018-Feb-16 16:00N 35°29' E 139°58'0 0.2
2018-Feb-16 15:30N 35°29' E 139°58'0 0.3
2018-Feb-16 15:00N 35°29' E 139°58'0 0.1
2018-Feb-16 14:30N 35°29' E 139°58'0 0.1
2018-Feb-16 14:01N 35°29' E 139°58'0 0.1
2018-Feb-16 13:30N 35°29' E 139°58'0 0.2
2018-Feb-16 13:01N 35°29' E 139°58'0 0.2
2018-Feb-16 12:30N 35°29' E 139°58'0 0.2
2018-Feb-16 12:00N 35°29' E 139°58'0 0.0
2018-Feb-16 11:30N 35°29' E 139°58'0 0.1
2018-Feb-16 11:00N 35°29' E 139°58'0 0.0
2018-Feb-16 10:28N 35°29' E 139°58'0 0.2
2018-Feb-16 10:00N 35°29' E 139°58'0 0.1
2018-Feb-16 09:30N 35°29' E 139°58'0 0.2
2018-Feb-16 09:00N 35°29' E 139°58'0 0.1
2018-Feb-16 08:30N 35°29' E 139°58'0 0.0
2018-Feb-16 08:00N 35°29' E 139°58'0 0.1
2018-Feb-16 07:30N 35°29' E 139°58'0 0.0
2018-Feb-16 07:00N 35°29' E 139°58'0 0.1
2018-Feb-16 06:30N 35°29' E 139°58'0 0.2
2018-Feb-16 06:00N 35°29' E 139°58'0 0.1
2018-Feb-16 05:30N 35°29' E 139°58'0 0.0
2018-Feb-16 05:00N 35°29' E 139°58'0 0.3
2018-Feb-16 04:30N 35°28' E 139°58'0 0.1
2018-Feb-16 04:00N 35°28' E 139°58'0 0.2
2018-Feb-16 03:30N 35°29' E 139°58'0 0.1
2018-Feb-16 03:00N 35°28' E 139°58'0 0.3
2018-Feb-16 02:30N 35°28' E 139°58'0 0.2
2018-Feb-16 02:00N 35°28' E 139°58'2 4.4
2018-Feb-16 01:29N 35°29' E 140°01'1 0.1
2018-Feb-15 10:27N 35°28' E 140°01'511.0
2018-Feb-15 09:59N 35°28' E 139°55'612.8
2018-Feb-15 09:31N 35°27' E 139°48'612.6
2018-Feb-15 09:00N 35°27' E 139°40'1 3.0
2018-Feb-15 08:30N 35°29' E 139°40'2 4.4
2018-Feb-15 08:01N 35°27' E 139°42'0 0.0
2018-Feb-15 07:30N 35°27' E 139°42'0 0.0
2018-Feb-15 07:00N 35°27' E 139°42'0 0.0
2018-Feb-15 06:31N 35°27' E 139°42'4 8.5
2018-Feb-15 06:00N 35°23' E 139°40'2 3.6
2018-Feb-15 05:30N 35°24' E 139°38'0 0.4
2018-Feb-15 05:01N 35°24' E 139°38'1 2.3
2018-Feb-15 04:31N 35°23' E 139°40'0 0.4
2018-Feb-15 04:00N 35°23' E 139°40'0 0.1
2018-Feb-15 03:30N 35°23' E 139°40'0 0.0
2018-Feb-15 03:00N 35°23' E 139°40'0 0.0
2018-Feb-15 02:30N 35°23' E 139°40'0 0.0
2018-Feb-15 02:00N 35°23' E 139°40'1 1.7
2018-Feb-15 01:30N 35°23' E 139°41'1 2.6
2018-Feb-15 01:01N 35°24' E 139°39'1 1.7
2018-Feb-15 00:31N 35°24' E 139°38'0 0.8
2018-Feb-15 00:00N 35°24' E 139°38'0 0.1
2018-Feb-14 23:30N 35°24' E 139°38'0 0.1
2018-Feb-14 23:00N 35°24' E 139°38'0 0.1
2018-Feb-14 22:30N 35°24' E 139°38'0 0.1
2018-Feb-14 22:00N 35°24' E 139°38'0 0.1
2018-Feb-14 21:30N 35°24' E 139°38'0 0.2
2018-Feb-14 21:00N 35°24' E 139°38'0 0.1
2018-Feb-14 20:31N 35°24' E 139°38'0 0.1
2018-Feb-14 20:01N 35°24' E 139°38'0 0.1
2018-Feb-14 19:30N 35°24' E 139°38'0 0.0
2018-Feb-14 19:01N 35°24' E 139°38'0 0.2
2018-Feb-14 18:30N 35°24' E 139°38'0 0.1
2018-Feb-14 18:00N 35°24' E 139°38'0 0.1
2018-Feb-14 17:30N 35°24' E 139°38'0 0.0
2018-Feb-14 17:00N 35°24' E 139°38'0 0.2
2018-Feb-14 16:30N 35°24' E 139°38'0 0.1
2018-Feb-14 16:00N 35°24' E 139°38'0 0.0
2018-Feb-14 15:30N 35°24' E 139°38'0 0.1
2018-Feb-14 15:00N 35°24' E 139°38'0 0.1
2018-Feb-14 14:31N 35°24' E 139°38'0 0.1
2018-Feb-14 14:00N 35°24' E 139°38'0 0.1
2018-Feb-14 13:30N 35°24' E 139°38'0 0.1
2018-Feb-14 13:01N 35°24' E 139°38'0 0.3
2018-Feb-14 12:30N 35°24' E 139°38'0 0.1
2018-Feb-14 12:00N 35°24' E 139°38'0 0.1
2018-Feb-14 11:31N 35°24' E 139°38'0 0.2
2018-Feb-14 11:01N 35°24' E 139°38'0 0.1
2018-Feb-14 10:31N 35°24' E 139°38'0 0.2
2018-Feb-14 10:00N 35°24' E 139°38'0 0.5
2018-Feb-14 09:30N 35°24' E 139°38'0 0.5
2018-Feb-14 09:00N 35°24' E 139°38'0 0.0
2018-Feb-14 08:30N 35°24' E 139°38'0 0.0
2018-Feb-14 08:00N 35°24' E 139°38'0 0.4
2018-Feb-14 07:30N 35°24' E 139°38'0 0.3
2018-Feb-14 07:01N 35°24' E 139°38'0 0.4
2018-Feb-14 06:30N 35°24' E 139°38'3 6.3
2018-Feb-14 06:01N 35°25' E 139°42'3 7.0
2018-Feb-14 05:30N 35°27' E 139°39'4 8.0
2018-Feb-14 05:01N 35°28' E 139°44'0 0.0
2018-Feb-14 04:30N 35°28' E 139°44'0 0.2
2018-Feb-14 04:00N 35°28' E 139°44'0 0.0
2018-Feb-14 03:31N 35°28' E 139°44'0 0.3
2018-Feb-14 03:00N 35°28' E 139°45'0 0.4
2018-Feb-14 02:31N 35°28' E 139°45'0 0.5
2018-Feb-14 02:00N 35°28' E 139°44'0 0.0
2018-Feb-14 01:30N 35°28' E 139°44'0 0.4
2018-Feb-14 01:01N 35°28' E 139°44'0 0.2
2018-Feb-14 00:31N 35°28' E 139°44'0 0.4
2018-Feb-14 00:01N 35°28' E 139°44'0 0.1
2018-Feb-13 23:30N 35°28' E 139°44'0 0.2
2018-Feb-13 23:00N 35°28' E 139°44'0 0.3
2018-Feb-13 22:30N 35°28' E 139°44'0 0.3
2018-Feb-13 22:00N 35°28' E 139°44'0 0.1
2018-Feb-13 21:30N 35°28' E 139°44'0 0.1
2018-Feb-13 21:01N 35°28' E 139°44'0 0.6
2018-Feb-13 20:30N 35°28' E 139°44'0 0.3
2018-Feb-13 20:00N 35°28' E 139°44'0 0.5
2018-Feb-13 19:30N 35°28' E 139°44'0 0.0
2018-Feb-13 19:00N 35°28' E 139°44'0 0.0
2018-Feb-13 18:30N 35°28' E 139°44'0 0.0
2018-Feb-13 18:00N 35°28' E 139°44'0 0.0
2018-Feb-13 17:30N 35°28' E 139°44'0 0.0
2018-Feb-13 17:00N 35°28' E 139°44'0 0.0
2018-Feb-13 16:30N 35°28' E 139°44'0 0.0
2018-Feb-13 16:00N 35°28' E 139°44'0 0.0
2018-Feb-13 15:30N 35°28' E 139°44'0 0.0
2018-Feb-13 15:00N 35°28' E 139°44'0 0.0
2018-Feb-13 14:30N 35°28' E 139°44'0 0.0
2018-Feb-13 14:01N 35°28' E 139°44'0 0.0
2018-Feb-13 13:30N 35°28' E 139°44'0 0.0
2018-Feb-13 13:00N 35°28' E 139°44'0 0.6
2018-Feb-13 12:30N 35°28' E 139°45'0 0.5
2018-Feb-13 12:00N 35°28' E 139°44'0 0.0
2018-Feb-13 11:30N 35°28' E 139°44'0 0.1
2018-Feb-13 11:00N 35°28' E 139°45'0 0.3
2018-Feb-13 10:30N 35°28' E 139°45'0 0.5
2018-Feb-13 10:00N 35°28' E 139°44'0 0.1
2018-Feb-13 09:30N 35°28' E 139°44'0 0.3
2018-Feb-13 09:00N 35°28' E 139°45'0 0.1
2018-Feb-13 08:31N 35°28' E 139°44'0 0.2
2018-Feb-13 08:00N 35°28' E 139°44'0 0.1
2018-Feb-13 07:30N 35°28' E 139°45'0 0.0
2018-Feb-13 07:01N 35°28' E 139°45'0 0.4
2018-Feb-13 06:30N 35°28' E 139°45'0 0.2
2018-Feb-13 06:00N 35°28' E 139°44'0 0.5
2018-Feb-13 05:30N 35°28' E 139°44'0 0.1
2018-Feb-13 05:00N 35°28' E 139°44'0 0.9
2018-Feb-13 04:30N 35°28' E 139°45'0 0.4
2018-Feb-13 04:01N 35°28' E 139°45'0 0.4
2018-Feb-13 03:30N 35°28' E 139°44'0 0.5
2018-Feb-13 03:00N 35°28' E 139°45'0 0.6
2018-Feb-13 02:30N 35°28' E 139°44'0 0.0
2018-Feb-13 02:00N 35°28' E 139°44'0 0.0
2018-Feb-13 01:30N 35°28' E 139°44'0 0.1
2018-Feb-13 01:00N 35°28' E 139°44'0 0.2
2018-Feb-13 00:30N 35°28' E 139°44'0 0.5
2018-Feb-13 00:00N 35°28' E 139°44'0 0.1
2018-Feb-12 23:30N 35°28' E 139°44'611.1
2018-Feb-12 22:59N 35°30' E 139°51'613.1
2018-Feb-12 22:29N 35°29' E 139°59'2 0.1
2018-Feb-12 05:06N 35°28' E 140°01'110.4
2018-Feb-12 05:00N 35°29' E 140°01'2 4.0
2018-Feb-12 04:31N 35°29' E 139°58'0 0.0
2018-Feb-12 04:00N 35°29' E 139°58'0 0.1
2018-Feb-12 03:30N 35°29' E 139°58'0 0.1
2018-Feb-12 03:00N 35°29' E 139°58'0 0.1
2018-Feb-12 02:30N 35°29' E 139°58'0 0.0
2018-Feb-12 02:01N 35°29' E 139°58'0 0.1
2018-Feb-12 01:30N 35°29' E 139°58'0 0.0
2018-Feb-12 01:00N 35°29' E 139°58'0 0.1
2018-Feb-12 00:30N 35°29' E 139°58'0 0.1
2018-Feb-12 00:01N 35°29' E 139°58'0 0.4
2018-Feb-11 23:30N 35°29' E 139°58'0 0.2
2018-Feb-11 23:00N 35°29' E 139°58'0 0.3
2018-Feb-11 22:30N 35°29' E 139°58'0 0.5
2018-Feb-11 22:00N 35°29' E 139°58'0 0.6
2018-Feb-11 21:30N 35°29' E 139°58'0 0.2
2018-Feb-11 21:01N 35°29' E 139°58'0 0.4
2018-Feb-11 20:30N 35°29' E 139°58'0 0.2
2018-Feb-11 20:01N 35°29' E 139°58'0 0.2
2018-Feb-11 19:30N 35°29' E 139°58'0 0.1
2018-Feb-11 19:00N 35°29' E 139°58'0 0.1
2018-Feb-11 18:30N 35°29' E 139°58'0 0.2
2018-Feb-11 17:59N 35°29' E 139°58'0 0.4
2018-Feb-11 17:30N 35°29' E 139°58'0 0.1
2018-Feb-11 16:59N 35°29' E 139°58'0 0.3
2018-Feb-11 16:30N 35°29' E 139°58'0 0.1
2018-Feb-11 16:01N 35°29' E 139°58'0 0.3
2018-Feb-11 15:30N 35°29' E 139°58'0 0.3
2018-Feb-11 14:59N 35°29' E 139°58'0 0.5
2018-Feb-11 14:30N 35°29' E 139°58'0 0.2
2018-Feb-11 14:00N 35°29' E 139°58'0 0.2
2018-Feb-11 13:30N 35°29' E 139°58'0 0.0
2018-Feb-11 13:00N 35°29' E 139°58'0 0.1
2018-Feb-11 12:30N 35°29' E 139°58'0 0.1
2018-Feb-11 12:00N 35°29' E 139°58'0 0.1
2018-Feb-11 11:31N 35°29' E 139°58'0 0.0
2018-Feb-11 11:00N 35°29' E 139°58'0 0.5
2018-Feb-11 10:30N 35°29' E 139°58'0 0.1
2018-Feb-11 10:00N 35°29' E 139°58'0 0.4
2018-Feb-11 09:30N 35°29' E 139°58'0 0.3
2018-Feb-11 09:00N 35°29' E 139°58'0 0.2
2018-Feb-11 08:30N 35°29' E 139°58'0 0.3
2018-Feb-11 08:01N 35°29' E 139°58'0 0.1
2018-Feb-11 07:30N 35°29' E 139°58'0 0.2
2018-Feb-11 07:00N 35°29' E 139°58'0 0.0
2018-Feb-11 06:30N 35°29' E 139°58'0 0.0
2018-Feb-11 06:00N 35°29' E 139°58'0 0.2
2018-Feb-11 05:29N 35°29' E 139°58'0 0.2
2018-Feb-11 05:00N 35°29' E 139°58'0 0.1
2018-Feb-11 04:31N 35°29' E 139°58'0 0.1
2018-Feb-11 04:00N 35°29' E 139°58'0 0.1
2018-Feb-11 03:31N 35°29' E 139°58'0 0.3
2018-Feb-11 03:00N 35°29' E 139°58'0 0.6
2018-Feb-11 02:30N 35°28' E 139°58'0 0.6
2018-Feb-11 02:00N 35°29' E 139°58'0 0.1
2018-Feb-11 01:30N 35°29' E 139°58'0 0.1
2018-Feb-11 01:00N 35°29' E 139°58'0 0.2
2018-Feb-11 00:31N 35°29' E 139°58'0 0.1
2018-Feb-11 00:00N 35°29' E 139°58'0 0.4
2018-Feb-10 23:30N 35°29' E 139°58'0 0.1
2018-Feb-10 23:00N 35°29' E 139°58'0 0.2
2018-Feb-10 22:30N 35°29' E 139°58'0 0.2
2018-Feb-10 22:00N 35°29' E 139°58'0 0.1
2018-Feb-10 21:30N 35°29' E 139°58'0 0.0
2018-Feb-10 21:00N 35°29' E 139°58'0 0.1
2018-Feb-10 20:30N 35°29' E 139°58'0 0.1
2018-Feb-10 20:00N 35°29' E 139°58'0 0.2
2018-Feb-10 19:30N 35°29' E 139°58'0 0.1
2018-Feb-10 19:00N 35°29' E 139°58'0 0.1
2018-Feb-10 18:31N 35°29' E 139°58'0 0.0
2018-Feb-10 18:01N 35°29' E 139°58'0 0.0
2018-Feb-10 17:30N 35°29' E 139°58'0 0.2
2018-Feb-10 17:01N 35°29' E 139°58'0 0.1
2018-Feb-10 16:30N 35°29' E 139°58'0 0.2
2018-Feb-10 16:00N 35°29' E 139°58'0 0.2
2018-Feb-10 15:29N 35°29' E 139°58'0 0.1
2018-Feb-10 15:00N 35°29' E 139°58'0 0.2
2018-Feb-10 14:30N 35°29' E 139°58'0 0.0
2018-Feb-10 14:00N 35°29' E 139°58'0 0.1
2018-Feb-10 13:30N 35°29' E 139°58'0 0.1
2018-Feb-10 13:01N 35°29' E 139°58'0 0.1
2018-Feb-10 12:30N 35°29' E 139°58'0 0.0
2018-Feb-10 12:00N 35°29' E 139°58'0 0.1
2018-Feb-10 11:30N 35°29' E 139°58'0 0.1
2018-Feb-10 11:01N 35°29' E 139°58'0 0.0
2018-Feb-10 10:30N 35°29' E 139°58'0 0.1
2018-Feb-10 10:00N 35°29' E 139°58'0 0.0
2018-Feb-10 09:31N 35°29' E 139°58'0 0.1
2018-Feb-10 09:00N 35°29' E 139°58'0 0.1
2018-Feb-10 08:30N 35°29' E 139°58'0 0.0
2018-Feb-10 08:00N 35°29' E 139°58'0 0.3
2018-Feb-10 07:31N 35°29' E 139°58'0 0.2
2018-Feb-10 07:00N 35°29' E 139°58'0 0.0
2018-Feb-10 06:31N 35°29' E 139°58'0 0.3
2018-Feb-10 06:00N 35°29' E 139°58'0 0.0
2018-Feb-10 05:30N 35°29' E 139°58'0 0.5
2018-Feb-10 04:59N 35°28' E 139°58'2 4.4
2018-Feb-10 04:29N 35°28' E 140°01'10 0.8
2018-Feb-09 15:30N 35°27' E 139°48'5 9.8
2018-Feb-09 15:00N 35°28' E 139°42'0 0.1
2018-Feb-09 14:31N 35°28' E 139°42'1 1.6
2018-Feb-09 14:01N 35°27' E 139°42'1 0.4
2018-Feb-09 12:30N 35°28' E 139°42'1 1.5
2018-Feb-09 11:30N 35°27' E 139°43'3 0.7
2018-Feb-09 07:00N 35°29' E 139°40'0 0.9
2018-Feb-09 06:30N 35°29' E 139°40'  

Dump ship's entire track history